Time;durP1;ratioP1;P1;durP2;ratioP2;P2;SDS_P1;SDS_P2;PMS_P1;PMS_P2;Temp;Humidity;BMP_temperature;BMP_pressure;BME280_temperature;BME280_humidity;BME280_pressure;Samples;Min_cycle;Max_cycle;Signal;HPM_P1;HPM_P2
2021/09/25 00:01:15;;;;;;;3.20;2.90;;;23.20;54.70;;;;;;6239144;23;20392;-83
2021/09/25 00:03:43;;;;;;;3.60;2.70;;;23.20;54.70;;;;;;6243074;23;20445;-84
2021/09/25 00:06:12;;;;;;;3.33;2.93;;;23.10;54.60;;;;;;6243294;23;20388;-84
2021/09/25 00:08:43;;;;;;;3.00;2.67;;;23.10;54.60;;;;;;6269124;23;20433;-84
2021/09/25 00:11:13;;;;;;;2.87;2.40;;;23.10;54.60;;;;;;6269708;23;20354;-84
2021/09/25 00:13:44;;;;;;;2.60;2.07;;;23.10;54.60;;;;;;6242323;23;20358;-84
2021/09/25 00:16:11;;;;;;;3.40;2.53;;;23.10;54.70;;;;;;6243407;23;20377;-83
2021/09/25 00:18:38;;;;;;;2.80;2.60;;;23.10;54.60;;;;;;6244011;23;20412;-83
2021/09/25 00:21:04;;;;;;;3.00;2.37;;;23.10;54.60;;;;;;6268498;23;20397;-84
2021/09/25 00:23:32;;;;;;;2.90;2.60;;;23.20;54.70;;;;;;6270706;23;20373;-84
2021/09/25 00:26:38;;;;;;;2.53;2.33;;;23.10;54.60;;;;;;6242897;23;20377;-84
2021/09/25 00:29:06;;;;;;;3.47;2.50;;;23.20;54.70;;;;;;6268871;23;20417;-84
2021/09/25 00:31:33;;;;;;;2.90;2.50;;;23.10;54.70;;;;;;6271171;23;20401;-84
2021/09/25 00:33:59;;;;;;;4.03;2.47;;;23.10;54.60;;;;;;6218943;23;20369;-84
2021/09/25 00:36:26;;;;;;;2.53;2.33;;;23.10;54.60;;;;;;6269540;23;20377;-84
2021/09/25 00:38:52;;;;;;;2.90;2.60;;;23.10;55.20;;;;;;6194019;23;20412;-84
2021/09/25 00:41:20;;;;;;;3.40;3.10;;;23.10;54.60;;;;;;6243404;23;20828;-84
2021/09/25 00:43:51;;;;;;;2.97;2.67;;;23.20;54.70;;;;;;6268990;23;20357;-84
2021/09/25 00:46:18;;;;;;;2.70;2.50;;;23.10;54.60;;;;;;6243048;23;20409;-84
2021/09/25 00:48:44;;;;;;;3.57;3.23;;;23.10;55.10;;;;;;6242510;23;20498;-84
2021/09/25 00:51:10;;;;;;;2.93;2.63;;;23.20;54.70;;;;;;6242877;23;20381;-84
2021/09/25 00:53:38;;;;;;;3.10;2.80;;;23.10;54.60;;;;;;6243727;23;20362;-84
2021/09/25 00:56:08;;;;;;;2.70;2.50;;;23.10;54.60;;;;;;6268700;23;20362;-84
2021/09/25 00:58:39;;;;;;;3.30;2.60;;;23.10;54.60;;;;;;6268897;23;20353;-83
2021/09/25 01:01:06;;;;;;;3.60;3.03;;;23.10;54.60;;;;;;6242604;23;20385;-83
2021/09/25 01:03:38;;;;;;;3.07;2.73;;;23.10;54.60;;;;;;6242562;23;20380;-83
2021/09/25 01:06:04;;;;;;;4.13;2.90;;;23.10;54.60;;;;;;6244097;23;20373;-82
2021/09/25 01:08:35;;;;;;;3.40;3.10;;;23.10;54.60;;;;;;6268437;23;20420;-82
2021/09/25 01:11:04;;;;;;;3.00;2.60;;;23.20;54.70;;;;;;6268864;23;20356;-83
2021/09/25 01:13:30;;;;;;;3.40;3.10;;;23.10;54.60;;;;;;6242780;23;20400;-84
2021/09/25 01:15:57;;;;;;;3.07;2.77;;;23.10;54.60;;;;;;6244445;23;20387;-84
2021/09/25 01:18:23;;;;;;;3.40;3.10;;;23.10;54.60;;;;;;6270304;23;20369;-84
2021/09/25 01:20:50;;;;;;;2.83;2.40;;;23.10;54.60;;;;;;6243382;23;20393;-84
2021/09/25 01:23:17;;;;;;;3.13;2.83;;;23.10;54.60;;;;;;6271149;23;20384;-84
2021/09/25 01:25:43;;;;;;;3.03;2.63;;;23.10;54.60;;;;;;6219805;23;20400;-84
2021/09/25 01:28:11;;;;;;;3.03;2.70;;;23.10;54.60;;;;;;6244635;23;20915;-83
2021/09/25 01:30:37;;;;;;;3.73;2.80;;;23.10;54.60;;;;;;6221479;23;20166;-83
2021/09/25 01:33:10;;;;;;;3.23;2.93;;;23.10;54.60;;;;;;6271096;23;20429;-84
2021/09/25 01:35:40;;;;;;;3.03;2.73;;;23.10;54.60;;;;;;6269751;23;20362;-84
2021/09/25 01:38:06;;;;;;;3.20;2.90;;;23.10;54.60;;;;;;6245136;23;20373;-84
2021/09/25 01:40:35;;;;;;;3.10;2.80;;;23.10;54.60;;;;;;6244995;23;20377;-83
2021/09/25 01:43:01;;;;;;;2.80;2.47;;;23.10;54.60;;;;;;6220581;23;20389;-83
2021/09/25 01:45:30;;;;;;;3.53;3.20;;;23.10;54.60;;;;;;6244905;23;20389;-84
2021/09/25 01:47:57;;;;;;;4.20;3.80;;;23.10;54.50;;;;;;6271449;23;20405;-84
2021/09/25 01:50:24;;;;;;;4.40;2.87;;;23.10;54.60;;;;;;6218954;23;20389;-83
2021/09/25 01:52:54;;;;;;;2.80;2.60;;;23.10;54.50;;;;;;6244697;23;20388;-84
2021/09/25 01:55:20;;;;;;;3.50;2.73;;;23.10;54.50;;;;;;6243197;23;20381;-83
2021/09/25 01:57:52;;;;;;;3.80;3.50;;;23.10;54.50;;;;;;6243892;23;20393;-84
2021/09/25 02:00:19;;;;;;;3.47;3.17;;;23.10;54.50;;;;;;6244734;23;20381;-84
2021/09/25 02:02:46;;;;;;;3.67;3.37;;;23.10;54.50;;;;;;6219939;23;20381;-84
2021/09/25 02:05:15;;;;;;;3.10;2.80;;;23.10;54.50;;;;;;6245261;23;20472;-84
2021/09/25 02:07:41;;;;;;;3.53;3.23;;;23.10;54.50;;;;;;6244355;23;20488;-84
2021/09/25 02:10:14;;;;;;;3.77;3.30;;;23.10;54.50;;;;;;6271265;23;20400;-84
2021/09/25 02:12:41;;;;;;;3.30;3.00;;;23.10;54.50;;;;;;6245184;23;20377;-84
2021/09/25 02:15:09;;;;;;;5.10;3.00;;;23.10;54.50;;;;;;6220359;23;20381;-84
2021/09/25 02:17:36;;;;;;;3.43;3.13;;;23.10;54.50;;;;;;6244809;23;20396;-84
2021/09/25 02:20:05;;;;;;;6.00;3.60;;;23.10;54.50;;;;;;6245784;23;20392;-84
2021/09/25 02:22:31;;;;;;;4.97;3.60;;;23.10;54.50;;;;;;6245409;23;20409;-83
2021/09/25 02:28:30;;;;;;;3.90;3.50;;;23.10;54.40;;;;;;6271941;23;20463;-83
2021/09/25 02:30:58;;;;;;;3.77;3.33;;;23.10;54.50;;;;;;6244110;23;20408;-83
2021/09/25 02:33:29;;;;;;;3.70;3.27;;;23.10;54.50;;;;;;6271235;23;20396;-83
2021/09/25 02:36:00;;;;;;;3.17;2.83;;;23.10;54.50;;;;;;6218850;23;20867;-83
2021/09/25 02:38:27;;;;;;;3.10;2.90;;;23.10;54.50;;;;;;6244988;23;20382;-82
2021/09/25 02:40:53;;;;;;;3.47;3.17;;;23.10;54.50;;;;;;6270556;23;20393;-82
2021/09/25 02:43:20;;;;;;;3.60;3.30;;;23.10;54.40;;;;;;6245311;23;20392;-82
2021/09/25 02:45:46;;;;;;;3.50;3.20;;;23.10;54.40;;;;;;6246009;23;20411;-83
2021/09/25 02:48:12;;;;;;;3.67;3.37;;;23.10;54.40;;;;;;6245613;23;20413;-83
2021/09/25 02:50:39;;;;;;;3.40;3.10;;;23.10;54.40;;;;;;6244885;23;20396;-83
2021/09/25 02:53:06;;;;;;;4.00;3.47;;;23.10;54.40;;;;;;6245574;23;20693;-83
2021/09/25 02:55:34;;;;;;;3.83;3.53;;;23.10;54.40;;;;;;6270210;23;20415;-83
2021/09/25 02:58:04;;;;;;;3.97;3.60;;;23.00;54.30;;;;;;6270547;23;20385;-83
2021/09/25 03:00:33;;;;;;;3.30;3.00;;;23.10;54.40;;;;;;6244607;23;20369;-83
2021/09/25 03:03:00;;;;;;;3.70;3.23;;;23.10;54.30;;;;;;6271209;23;20425;-83
2021/09/25 03:05:31;;;;;;;6.63;3.67;;;23.10;54.30;;;;;;6244544;23;20384;-83
2021/09/25 03:07:56;;;;;;;4.00;3.13;;;23.10;54.40;;;;;;6218802;23;20439;-83
2021/09/25 03:10:32;;;;;;;3.00;2.70;;;23.10;54.40;;;;;;6268786;23;20400;-83
2021/09/25 03:12:58;;;;;;;3.40;3.10;;;23.10;54.40;;;;;;6220550;23;20393;-83
2021/09/25 03:15:33;;;;;;;3.40;3.10;;;23.10;54.50;;;;;;6243851;23;20409;-83
2021/09/25 03:18:00;;;;;;;3.17;2.87;;;23.10;54.40;;;;;;6244558;23;20385;-83
2021/09/25 03:20:26;;;;;;;3.60;3.23;;;23.10;54.40;;;;;;6243873;23;20377;-83
2021/09/25 03:22:52;;;;;;;3.43;3.13;;;23.10;54.50;;;;;;6244413;23;20420;-83
2021/09/25 03:25:22;;;;;;;2.70;2.50;;;23.10;54.40;;;;;;6244296;23;20377;-83
2021/09/25 03:27:53;;;;;;;3.50;3.13;;;23.10;54.40;;;;;;6242494;23;20444;-83
2021/09/25 03:30:22;;;;;;;3.90;3.30;;;23.10;54.40;;;;;;6245406;23;20420;-83
2021/09/25 03:33:01;;;;;;;3.83;3.60;;;23.10;54.40;;;;;;6243575;23;20373;-83
2021/09/25 03:35:27;;;;;;;3.17;2.93;;;23.10;54.40;;;;;;6270848;23;20354;-83
2021/09/25 03:38:02;;;;;;;3.10;2.90;;;23.10;54.40;;;;;;6244324;23;20380;-83
2021/09/25 03:40:30;;;;;;;3.83;3.20;;;23.10;54.40;;;;;;6270212;23;20345;-83
2021/09/25 03:43:00;;;;;;;3.20;2.90;;;23.10;54.50;;;;;;6268257;23;20389;-83
2021/09/25 03:45:26;;;;;;;3.80;3.40;;;23.10;54.40;;;;;;6243870;23;20411;-83
2021/09/25 03:47:58;;;;;;;3.17;2.87;;;23.10;54.40;;;;;;6268607;23;20926;-83
2021/09/25 03:50:25;;;;;;;4.07;3.13;;;23.10;54.40;;;;;;6220188;23;20405;-83
2021/09/25 03:52:51;;;;;;;3.50;3.10;;;23.10;54.40;;;;;;6218342;23;20389;-83
2021/09/25 03:55:18;;;;;;;3.60;3.30;;;23.10;54.40;;;;;;6243762;23;20374;-83
2021/09/25 03:57:44;;;;;;;3.50;3.20;;;23.10;54.40;;;;;;6270682;23;20380;-83
2021/09/25 04:00:11;;;;;;;3.50;3.20;;;23.10;54.40;;;;;;6270248;23;20831;-83
2021/09/25 04:02:37;;;;;;;3.13;2.83;;;23.10;54.40;;;;;;6242718;23;20377;-83
2021/09/25 04:05:07;;;;;;;4.23;3.53;;;23.10;54.40;;;;;;6243728;23;20859;-83
2021/09/25 04:07:34;;;;;;;4.20;3.40;;;23.10;54.40;;;;;;6244307;23;20420;-83
2021/09/25 04:10:02;;;;;;;3.50;3.20;;;23.10;54.40;;;;;;6244652;23;20398;-83
2021/09/25 04:12:31;;;;;;;3.70;3.40;;;23.10;54.40;;;;;;6243283;23;20377;-83
2021/09/25 04:14:57;;;;;;;4.73;3.43;;;23.10;54.40;;;;;;6243411;23;20370;-83
2021/09/25 04:17:25;;;;;;;3.50;3.20;;;23.10;54.30;;;;;;6243977;23;20396;-83
2021/09/25 04:19:51;;;;;;;3.90;3.40;;;23.10;54.30;;;;;;6243788;23;20385;-83
2021/09/25 04:22:17;;;;;;;3.90;3.60;;;23.10;54.30;;;;;;6270131;23;20416;-83
2021/09/25 04:24:44;;;;;;;4.93;3.87;;;23.10;54.30;;;;;;6219359;23;20420;-83
2021/09/25 04:27:11;;;;;;;3.70;3.40;;;23.10;54.30;;;;;;6269920;23;20373;-83
2021/09/25 04:29:39;;;;;;;3.90;3.47;;;23.10;54.30;;;;;;6243784;23;20388;-83
2021/09/25 04:32:06;;;;;;;3.63;3.30;;;23.10;54.30;;;;;;6244110;23;20400;-83
2021/09/25 04:34:33;;;;;;;3.60;3.30;;;23.10;54.30;;;;;;6270028;23;20361;-83
2021/09/25 04:37:00;;;;;;;3.40;3.10;;;23.10;54.30;;;;;;6243785;23;20374;-83
2021/09/25 04:39:27;;;;;;;3.87;3.47;;;23.10;54.30;;;;;;6218175;23;20385;-83
2021/09/25 04:41:53;;;;;;;3.53;3.23;;;23.10;54.30;;;;;;6243415;23;20437;-83
2021/09/25 04:44:20;;;;;;;3.00;2.70;;;23.10;54.30;;;;;;6194027;23;20405;-83
2021/09/25 04:46:47;;;;;;;3.30;3.00;;;23.10;54.30;;;;;;6243969;23;20377;-83
2021/09/25 04:49:15;;;;;;;3.23;2.93;;;23.10;54.30;;;;;;6270012;23;20417;-83
2021/09/25 04:51:45;;;;;;;3.40;3.10;;;23.20;54.30;;;;;;6243702;23;20373;-83
2021/09/25 04:54:11;;;;;;;2.90;2.70;;;23.20;54.30;;;;;;6244310;23;20693;-83
2021/09/25 04:56:38;;;;;;;3.53;3.23;;;23.20;54.30;;;;;;6270220;23;20376;-83
2021/09/25 04:59:06;;;;;;;3.47;3.17;;;23.20;54.30;;;;;;6270279;23;20150;-83
2021/09/25 05:01:31;;;;;;;3.30;3.00;;;23.10;54.20;;;;;;6245332;23;20381;-83
2021/09/25 05:04:01;;;;;;;3.93;3.63;;;23.10;54.20;;;;;;6272030;23;20859;-83
2021/09/25 05:06:28;;;;;;;3.70;3.27;;;23.20;54.30;;;;;;6245875;23;20373;-83
2021/09/25 05:08:57;;;;;;;3.37;3.07;;;23.20;54.30;;;;;;6245684;23;20417;-83
2021/09/25 05:11:25;;;;;;;3.17;2.87;;;23.20;54.20;;;;;;6245733;23;20373;-83
2021/09/25 05:13:54;;;;;;;4.97;3.23;;;23.20;54.20;;;;;;6244905;23;20439;-83
2021/09/25 05:16:21;;;;;;;3.57;3.27;;;23.20;54.20;;;;;;6245612;23;20473;-83
2021/09/25 05:18:47;;;;;;;4.10;3.70;;;23.20;54.20;;;;;;6271255;23;20373;-83
2021/09/25 05:21:15;;;;;;;3.20;3.00;;;23.20;54.20;;;;;;6245804;23;20408;-83
2021/09/25 05:23:43;;;;;;;3.47;3.17;;;23.20;54.20;;;;;;6271617;23;20153;-82
2021/09/25 05:26:10;;;;;;;4.00;3.60;;;23.20;54.20;;;;;;6220515;23;20381;-83
2021/09/25 05:28:38;;;;;;;4.13;3.53;;;23.20;54.20;;;;;;6271877;23;20443;-83
2021/09/25 05:31:09;;;;;;;4.07;3.20;;;23.20;54.20;;;;;;6246144;23;20440;-83
2021/09/25 05:33:35;;;;;;;3.27;2.97;;;23.20;54.20;;;;;;6244483;23;20408;-83
2021/09/25 05:36:04;;;;;;;3.27;2.80;;;23.20;54.10;;;;;;6270878;23;20392;-83
2021/09/25 05:38:30;;;;;;;4.20;3.33;;;23.20;54.10;;;;;;6237933;23;20381;-83
2021/09/25 05:40:57;;;;;;;4.10;3.70;;;23.20;54.10;;;;;;6244972;23;20403;-83
2021/09/25 05:43:23;;;;;;;3.97;3.60;;;23.20;54.10;;;;;;6271354;23;20376;-83
2021/09/25 05:45:49;;;;;;;3.50;3.20;;;23.20;54.10;;;;;;6222170;23;20412;-83
2021/09/25 05:48:17;;;;;;;3.50;3.20;;;23.20;54.10;;;;;;6245868;23;20416;-83
2021/09/25 05:50:45;;;;;;;3.50;3.10;;;23.20;54.10;;;;;;6245029;23;20453;-83
2021/09/25 05:53:11;;;;;;;3.30;3.10;;;23.20;54.10;;;;;;6247274;23;20407;-83
2021/09/25 05:55:42;;;;;;;3.40;3.10;;;23.20;54.60;;;;;;6245057;23;20381;-83
2021/09/25 05:58:11;;;;;;;3.83;3.53;;;23.20;54.10;;;;;;6244243;23;20158;-83
2021/09/25 06:00:40;;;;;;;4.13;3.50;;;23.20;54.00;;;;;;6243836;23;20409;-84
2021/09/25 06:03:24;;;;;;;3.80;3.50;;;23.20;54.00;;;;;;6269563;23;20378;-84
2021/09/25 06:05:52;;;;;;;3.73;3.10;;;23.30;54.10;;;;;;6243255;23;20378;-84
2021/09/25 06:08:18;;;;;;;3.57;3.27;;;23.20;54.00;;;;;;6269814;23;20458;-84
2021/09/25 06:10:44;;;;;;;4.60;3.80;;;23.20;54.00;;;;;;6242587;23;20374;-84
2021/09/25 06:13:12;;;;;;;4.13;3.43;;;23.20;54.00;;;;;;6242809;23;20158;-84
2021/09/25 06:15:55;;;;;;;3.70;3.40;;;23.30;54.10;;;;;;6266913;23;20596;-85
2021/09/25 06:18:25;;;;;;;3.70;3.40;;;23.20;54.00;;;;;;6241531;23;20404;-86
2021/09/25 06:20:54;;;;;;;3.93;3.57;;;23.20;54.00;;;;;;6269406;23;20146;-84
2021/09/25 06:23:20;;;;;;;4.20;3.73;;;23.20;54.00;;;;;;6242913;23;20385;-84
2021/09/25 06:25:48;;;;;;;3.77;3.43;;;23.20;53.90;;;;;;6270247;23;20384;-84
2021/09/25 06:28:15;;;;;;;4.50;3.67;;;23.20;53.90;;;;;;6242852;23;20887;-84
2021/09/25 06:30:45;;;;;;;3.67;3.37;;;23.30;54.50;;;;;;6243262;23;20401;-84
2021/09/25 06:33:14;;;;;;;6.63;3.50;;;23.30;54.00;;;;;;6242133;23;20404;-85
2021/09/25 06:35:40;;;;;;;3.40;3.10;;;23.30;54.00;;;;;;6242861;23;20407;-84
2021/09/25 06:38:08;;;;;;;3.30;3.00;;;23.30;54.00;;;;;;6270039;23;20365;-85
2021/09/25 06:40:36;;;;;;;4.00;3.70;;;23.30;54.00;;;;;;6242778;23;20393;-85
2021/09/25 06:43:03;;;;;;;3.40;3.10;;;23.30;54.00;;;;;;6217821;23;20386;-85
2021/09/25 06:45:33;;;;;;;3.83;3.40;;;23.30;54.00;;;;;;6269400;23;20461;-85
2021/09/25 06:48:01;;;;;;;3.30;3.00;;;23.30;54.00;;;;;;6243556;23;20409;-85
2021/09/25 06:50:32;;;;;;;3.70;3.40;;;23.30;53.90;;;;;;6242396;23;20381;-85
2021/09/25 06:52:59;;;;;;;4.10;3.30;;;23.30;53.90;;;;;;6193780;23;20369;-85
2021/09/25 06:55:34;;;;;;;4.07;3.60;;;23.30;53.90;;;;;;6218307;23;20445;-85
2021/09/25 06:58:00;;;;;;;3.87;3.50;;;23.30;53.90;;;;;;6218015;23;20384;-85
2021/09/25 07:00:27;;;;;;;3.60;3.30;;;23.30;53.90;;;;;;6217839;23;20489;-84
2021/09/25 07:02:54;;;;;;;3.70;2.90;;;23.30;53.90;;;;;;6269977;23;20357;-85
2021/09/25 07:05:22;;;;;;;3.80;3.47;;;23.30;53.90;;;;;;6243618;23;20373;-85
2021/09/25 07:07:54;;;;;;;3.30;3.00;;;23.40;54.00;;;;;;6237487;23;20413;-85
2021/09/25 07:10:20;;;;;;;3.40;3.10;;;23.40;54.00;;;;;;6243625;23;20429;-85
2021/09/25 07:12:56;;;;;;;3.90;3.50;;;23.40;54.00;;;;;;6242961;23;20386;-85
2021/09/25 07:15:29;;;;;;;4.00;3.30;;;23.40;53.90;;;;;;6270438;23;20377;-85
2021/09/25 07:17:58;;;;;;;4.83;3.07;;;23.40;54.00;;;;;;6271303;23;20377;-84
2021/09/25 07:20:25;;;;;;;3.17;2.80;;;23.40;54.00;;;;;;6243393;23;20377;-84
2021/09/25 07:22:51;;;;;;;3.77;3.47;;;23.40;54.00;;;;;;6218248;23;20416;-84
2021/09/25 07:25:27;;;;;;;4.03;3.20;;;23.40;54.00;;;;;;6218693;23;20411;-86
2021/09/25 07:27:58;;;;;;;3.70;3.40;;;23.40;54.00;;;;;;6242711;23;20484;-85
2021/09/25 07:31:18;;;;;;;4.30;2.93;;;23.40;54.00;;;;;;6241580;23;20393;-84
2021/09/25 07:33:56;;;;;;;3.50;3.20;;;23.40;53.90;;;;;;6165756;23;20409;-85
2021/09/25 07:36:26;;;;;;;3.30;3.00;;;23.40;54.00;;;;;;6217542;23;20469;-84
2021/09/25 07:38:58;;;;;;;3.80;3.43;;;23.40;54.00;;;;;;6267825;23;20373;-84
2021/09/25 07:41:33;;;;;;;3.50;3.20;;;23.40;54.00;;;;;;6269974;23;20369;-83
2021/09/25 07:44:06;;;;;;;3.30;3.00;;;23.40;54.00;;;;;;6269283;23;20341;-83
2021/09/25 07:46:34;;;;;;;4.07;2.93;;;23.40;54.00;;;;;;6216992;23;20400;-83
2021/09/25 07:49:09;;;;;;;3.13;2.83;;;23.40;54.00;;;;;;6270135;23;20396;-83
2021/09/25 07:51:35;;;;;;;3.40;3.10;;;23.40;54.00;;;;;;6218126;23;20456;-84
2021/09/25 07:54:08;;;;;;;3.10;2.80;;;23.40;54.00;;;;;;6242934;23;20381;-83
2021/09/25 07:57:08;;;;;;;3.83;3.30;;;23.40;54.00;;;;;;6218262;23;20411;-83
2021/09/25 07:59:35;;;;;;;3.43;3.13;;;23.40;54.00;;;;;;6249065;23;20365;-84
2021/09/25 08:02:09;;;;;;;4.97;3.07;;;23.40;54.00;;;;;;6255041;23;20370;-84
2021/09/25 08:04:45;;;;;;;6.33;3.60;;;23.40;54.10;;;;;;6244419;23;20376;-84
2021/09/25 08:07:12;;;;;;;5.00;3.13;;;23.40;54.00;;;;;;6269686;23;20828;-83
2021/09/25 08:09:41;;;;;;;3.90;3.30;;;23.40;54.10;;;;;;6244175;23;20369;-83
2021/09/25 08:12:11;;;;;;;3.70;3.40;;;23.40;54.10;;;;;;6242864;23;20374;-83
2021/09/25 08:14:39;;;;;;;3.20;2.90;;;23.50;54.10;;;;;;6189493;23;20453;-83
2021/09/25 08:17:06;;;;;;;4.47;3.07;;;23.50;54.10;;;;;;6242848;23;20384;-84
2021/09/25 08:19:33;;;;;;;3.27;2.80;;;23.50;54.10;;;;;;6269297;23;20364;-84
2021/09/25 08:22:09;;;;;;;3.17;2.87;;;23.50;54.10;;;;;;6219098;23;20396;-83
2021/09/25 08:24:45;;;;;;;3.80;3.00;;;23.50;54.10;;;;;;6191270;23;20381;-83
2021/09/25 08:27:17;;;;;;;5.50;3.17;;;23.50;54.10;;;;;;6243569;23;20425;-83
2021/09/25 08:29:43;;;;;;;4.00;3.30;;;23.50;54.10;;;;;;6243209;23;20380;-83
2021/09/25 08:32:18;;;;;;;3.27;2.97;;;23.50;54.10;;;;;;6242957;23;20377;-83
2021/09/25 08:34:46;;;;;;;4.40;3.30;;;23.50;54.10;;;;;;6221896;23;20377;-84
2021/09/25 08:37:16;;;;;;;3.60;3.10;;;23.50;54.10;;;;;;6245565;23;20388;-83
2021/09/25 08:39:43;;;;;;;3.20;2.50;;;23.50;54.10;;;;;;6246508;23;20366;-84
2021/09/25 08:42:20;;;;;;;4.03;2.80;;;23.50;54.10;;;;;;6221718;23;20381;-84
2021/09/25 08:44:56;;;;;;;4.27;3.30;;;23.50;54.20;;;;;;6266839;23;20420;-86
2021/09/25 08:47:30;;;;;;;4.90;3.10;;;23.50;54.20;;;;;;6245976;23;20406;-85
2021/09/25 08:49:57;;;;;;;4.00;3.47;;;23.50;54.30;;;;;;6223028;23;20369;-85
2021/09/25 08:52:31;;;;;;;4.80;3.30;;;23.50;54.20;;;;;;6245068;23;20405;-83
2021/09/25 08:54:57;;;;;;;4.90;3.00;;;23.50;54.20;;;;;;6198390;23;20404;-85
2021/09/25 08:57:22;;;;;;;6.70;3.63;;;23.50;54.20;;;;;;6273853;23;20441;-85
2021/09/25 08:59:48;;;;;;;4.73;3.03;;;23.50;54.20;;;;;;6246222;23;20181;-84
2021/09/25 09:02:17;;;;;;;3.17;2.50;;;23.50;54.20;;;;;;6273261;23;20178;-84
2021/09/25 09:04:54;;;;;;;3.90;3.00;;;23.50;54.20;;;;;;6246485;23;20173;-84
2021/09/25 09:07:26;;;;;;;3.83;3.33;;;23.50;54.20;;;;;;6272727;23;20409;-84
2021/09/25 09:09:53;;;;;;;4.20;3.00;;;23.50;54.20;;;;;;6247074;23;20384;-84
2021/09/25 09:12:23;;;;;;;6.73;3.10;;;23.50;54.20;;;;;;6247331;23;20384;-84
2021/09/25 09:14:51;;;;;;;3.10;2.60;;;23.60;54.30;;;;;;6246930;23;20384;-84
2021/09/25 09:17:25;;;;;;;3.67;2.63;;;23.60;54.30;;;;;;6246485;23;20405;-84
2021/09/25 09:19:52;;;;;;;3.23;2.93;;;23.60;54.80;;;;;;6272657;23;20392;-84
2021/09/25 09:22:33;;;;;;;4.00;2.90;;;23.60;54.30;;;;;;6273023;23;20360;-84
2021/09/25 09:25:09;;;;;;;3.23;2.93;;;23.60;54.30;;;;;;6246591;23;20373;-84
2021/09/25 09:31:00;;;;;;;6.73;2.93;;;23.60;54.30;;;;;;6182679;23;20479;-85
2021/09/25 09:33:42;;;;;;;4.43;3.00;;;23.60;54.30;;;;;;6246096;23;20389;-85
2021/09/25 09:36:41;;;;;;;3.03;2.50;;;23.60;54.40;;;;;;6272213;23;20354;-84
2021/09/25 09:39:21;;;;;;;4.83;2.50;;;23.60;54.30;;;;;;6096808;23;20449;-84
2021/09/25 09:41:48;;;;;;;4.60;2.40;;;23.60;54.40;;;;;;6121095;23;20385;-84
2021/09/25 09:44:17;;;;;;;4.53;3.43;;;23.60;55.00;;;;;;6120522;23;20401;-85
2021/09/25 09:47:10;;;;;;;4.30;2.90;;;23.60;54.40;;;;;;6093891;23;20413;-85
2021/09/25 09:49:43;;;;;;;3.47;2.60;;;23.60;54.40;;;;;;6118789;23;20386;-84
2021/09/25 09:52:24;;;;;;;3.30;2.80;;;23.60;54.40;;;;;;6118494;23;20401;-85
2021/09/25 09:54:53;;;;;;;3.70;3.00;;;23.60;54.40;;;;;;6119411;23;20868;-84
2021/09/25 09:57:20;;;;;;;3.60;2.60;;;23.60;54.40;;;;;;6119322;23;20449;-86
2021/09/25 09:59:53;;;;;;;4.90;2.93;;;23.60;54.40;;;;;;6092778;23;20374;-83
2021/09/25 10:02:19;;;;;;;8.73;3.50;;;23.60;54.40;;;;;;6091630;23;20382;-85
2021/09/25 10:04:45;;;;;;;4.57;2.77;;;23.60;54.40;;;;;;6117424;23;20402;-85
2021/09/25 10:07:11;;;;;;;2.37;2.17;;;23.60;54.40;;;;;;6116906;23;20165;-85
2021/09/25 10:09:42;;;;;;;5.50;3.03;;;23.60;54.40;;;;;;6114751;23;20377;-85
2021/09/25 10:12:17;;;;;;;6.20;3.20;;;23.60;54.50;;;;;;6112043;23;20134;-85
2021/09/25 10:14:48;;;;;;;3.10;2.60;;;23.60;54.40;;;;;;6124816;23;20493;-85
2021/09/25 10:17:16;;;;;;;4.53;3.47;;;23.60;54.40;;;;;;6237753;23;20449;-85
2021/09/25 10:19:44;;;;;;;3.90;3.03;;;23.60;54.40;;;;;;6237331;23;20386;-85
2021/09/25 10:22:18;;;;;;;3.43;2.60;;;23.60;54.40;;;;;;6238193;23;20459;-85
2021/09/25 10:31:19;;;;;;;5.93;3.57;;;23.60;54.40;;;;;;6267954;23;20345;-84
2021/09/25 10:34:08;;;;;;;4.70;2.53;;;23.60;54.50;;;;;;6239063;23;20405;-84
2021/09/25 10:36:42;;;;;;;2.87;2.57;;;23.60;54.50;;;;;;6266181;23;20409;-84
2021/09/25 10:39:17;;;;;;;3.50;2.80;;;23.60;54.50;;;;;;6239849;23;20377;-84
2021/09/25 10:41:48;;;;;;;3.20;2.90;;;23.60;54.50;;;;;;6263925;23;20428;-85
2021/09/25 10:44:35;;;;;;;2.93;2.73;;;23.60;54.50;;;;;;6238082;23;20377;-86
2021/09/25 10:47:08;;;;;;;4.70;2.87;;;23.60;54.50;;;;;;6264049;23;20388;-85
2021/09/25 10:49:41;;;;;;;3.70;2.83;;;23.60;54.50;;;;;;6263514;23;20369;-85
2021/09/25 10:52:07;;;;;;;3.17;2.83;;;23.60;54.50;;;;;;6263441;23;20366;-85
2021/09/25 10:54:32;;;;;;;3.40;2.60;;;23.60;54.50;;;;;;6236372;23;20388;-85
2021/09/25 11:00:25;;;;;;;4.30;3.03;;;23.60;54.50;;;;;;6197350;23;20177;-84
2021/09/25 11:02:50;;;;;;;3.70;2.60;;;23.60;54.50;;;;;;6263716;23;20678;-85
2021/09/25 11:09:04;;;;;;;4.23;3.10;;;23.60;54.50;;;;;;6206652;23;20440;-84
2021/09/25 11:11:39;;;;;;;2.63;2.43;;;23.60;54.60;;;;;;6238018;23;20388;-85
2021/09/25 11:14:39;;;;;;;3.13;2.80;;;23.60;54.60;;;;;;6238311;23;20408;-86
2021/09/25 11:17:17;;;;;;;4.50;2.73;;;23.60;54.60;;;;;;6237799;23;20435;-85
2021/09/25 11:20:19;;;;;;;;;;;;;;;;;;;;;
2021/09/25 11:22:51;;;;;;;3.30;2.87;;;23.60;54.60;;;;;;6254041;23;20384;-86
2021/09/25 11:25:30;;;;;;;3.40;2.37;;;23.50;54.60;;;;;;6238386;23;20373;-86
2021/09/25 11:28:08;;;;;;;3.30;3.00;;;23.60;54.60;;;;;;6237801;23;20416;-85
2021/09/25 11:30:39;;;;;;;4.23;2.70;;;23.60;54.60;;;;;;6237797;23;20377;-86
2021/09/25 11:33:07;;;;;;;3.57;2.83;;;23.60;54.60;;;;;;6238015;23;20412;-85
2021/09/25 11:45:50;;;;;;;;;;;;;;;;;;;;;
2021/09/25 11:48:32;;;;;;;;;;;;;;;;;;;;;
2021/09/25 11:53:59;;;;;;;3.70;2.50;;;23.50;54.70;;;;;;6136084;23;20380;-85
2021/09/25 11:56:58;;;;;;;2.53;2.33;;;23.50;54.70;;;;;;6144893;23;20384;-86
2021/09/25 11:59:27;;;;;;;2.50;2.30;;;23.50;54.60;;;;;;6165863;23;20390;-84
2021/09/25 12:01:54;;;;;;;3.60;2.33;;;23.50;54.70;;;;;;6145736;23;20380;-85
2021/09/25 12:07:59;;;;;;;;;;;;;;;;;;;;;
2021/09/25 12:10:30;;;;;;;2.63;2.17;;;23.50;54.70;;;;;;6172326;23;20871;-86
2021/09/25 12:13:07;;;;;;;2.20;2.00;;;23.50;54.70;;;;;;6173561;23;20361;-85
2021/09/25 12:15:48;;;;;;;3.67;2.63;;;23.50;54.70;;;;;;6194741;23;20381;-85
2021/09/25 12:21:20;;;;;;;3.37;2.80;;;23.50;54.70;;;;;;6205425;23;20358;-86
2021/09/25 12:24:09;;;;;;;3.00;2.47;;;23.50;54.70;;;;;;6240100;23;20389;-85
2021/09/25 12:27:14;;;;;;;;;;;;;;;;;;;;;
2021/09/25 12:29:42;;;;;;;2.40;2.20;;;23.50;54.70;;;;;;6115342;23;20398;-84
2021/09/25 12:32:10;;;;;;;2.93;2.70;;;23.50;54.80;;;;;;6088241;23;20393;-85
2021/09/25 12:34:48;;;;;;;3.43;2.40;;;23.50;54.80;;;;;;6113407;23;20476;-85
2021/09/25 12:37:22;;;;;;;3.30;2.37;;;23.50;54.70;;;;;;6087797;23;20389;-85
2021/09/25 12:39:51;;;;;;;2.93;2.73;;;23.50;54.70;;;;;;6111156;23;20372;-86
2021/09/25 12:42:26;;;;;;;5.07;2.80;;;23.50;54.70;;;;;;6111232;23;20382;-86
2021/09/25 12:44:55;;;;;;;2.60;2.40;;;23.50;54.70;;;;;;6110699;23;20401;-86
2021/09/25 12:47:32;;;;;;;4.13;2.47;;;23.50;54.80;;;;;;6085820;23;20397;-86
2021/09/25 12:50:45;;;;;;;2.87;2.40;;;23.50;54.80;;;;;;6086188;23;20475;-85
2021/09/25 12:53:18;;;;;;;3.80;2.90;;;23.50;54.70;;;;;;6085886;23;20393;-86
2021/09/25 12:55:43;;;;;;;4.10;2.60;;;23.50;54.80;;;;;;6110647;23;20437;-85
2021/09/25 12:58:27;;;;;;;2.50;2.30;;;23.50;54.80;;;;;;6086982;23;20388;-86
2021/09/25 13:00:54;;;;;;;2.70;2.30;;;23.50;54.80;;;;;;6110927;23;20157;-86
2021/09/25 13:03:23;;;;;;;3.87;2.50;;;23.50;54.80;;;;;;6159493;23;20902;-86
2021/09/25 13:05:49;;;;;;;3.20;2.33;;;23.50;54.80;;;;;;6204218;23;20393;-85
2021/09/25 13:08:28;;;;;;;2.90;2.50;;;23.50;54.80;;;;;;6228445;23;20418;-85
2021/09/25 13:10:58;;;;;;;3.23;2.50;;;23.50;54.80;;;;;;6229130;23;20707;-85
2021/09/25 13:13:24;;;;;;;2.67;2.27;;;23.50;54.80;;;;;;6202950;23;20434;-86
2021/09/25 13:15:50;;;;;;;2.13;1.90;;;23.50;54.80;;;;;;6228922;23;20362;-85
2021/09/25 13:18:19;;;;;;;2.23;2.10;;;23.50;54.80;;;;;;6203650;23;20382;-85
2021/09/25 13:20:54;;;;;;;2.57;2.37;;;23.50;54.80;;;;;;6204577;23;20418;-86
2021/09/25 13:23:30;;;;;;;2.30;2.10;;;23.50;54.80;;;;;;6215844;23;20408;-86
2021/09/25 13:25:56;;;;;;;2.60;2.40;;;23.50;54.80;;;;;;6263689;23;20368;-85
2021/09/25 13:28:21;;;;;;;3.67;2.67;;;23.50;54.80;;;;;;6262461;23;20393;-85
2021/09/25 13:30:47;;;;;;;3.13;2.60;;;23.50;54.80;;;;;;6236276;23;20157;-86
2021/09/25 13:33:19;;;;;;;2.97;2.63;;;23.50;54.80;;;;;;6236932;23;20170;-85
2021/09/25 13:35:45;;;;;;;2.63;2.40;;;23.50;54.80;;;;;;6238760;23;20142;-86
2021/09/25 13:38:30;;;;;;;2.97;2.67;;;23.50;54.90;;;;;;6264575;23;20900;-87
2021/09/25 13:40:58;;;;;;;2.30;2.10;;;23.50;54.90;;;;;;6237360;23;20458;-86
2021/09/25 13:43:27;;;;;;;4.43;2.53;;;23.50;54.90;;;;;;6261691;23;20866;-86
2021/09/25 13:45:52;;;;;;;2.73;2.53;;;23.50;54.90;;;;;;6235854;23;20381;-86
2021/09/25 13:48:24;;;;;;;2.40;2.20;;;23.50;54.90;;;;;;6236647;23;20425;-86
2021/09/25 13:50:52;;;;;;;2.27;2.00;;;23.50;54.90;;;;;;6264686;23;20142;-85